sensor_id;sensor_type;location;lat;lon;timestamp;P1;durP1;ratioP1;P2;durP2;ratioP2
495;SDS011;39559;48.630;9.162;2022-09-01T00:02:18;43.28;;;16.52;;
495;SDS011;39559;48.630;9.162;2022-09-01T00:04:45;47.30;;;17.63;;
495;SDS011;39559;48.630;9.162;2022-09-01T00:07:11;57.83;;;17.58;;
495;SDS011;39559;48.630;9.162;2022-09-01T00:09:38;43.65;;;17.60;;
495;SDS011;39559;48.630;9.162;2022-09-01T00:12:05;52.47;;;18.13;;
495;SDS011;39559;48.630;9.162;2022-09-01T00:16:23;35.88;;;16.80;;
495;SDS011;39559;48.630;9.162;2022-09-01T00:18:50;37.53;;;16.80;;
495;SDS011;39559;48.630;9.162;2022-09-01T00:21:18;49.78;;;18.05;;
495;SDS011;39559;48.630;9.162;2022-09-01T00:23:46;74.28;;;19.10;;
495;SDS011;39559;48.630;9.162;2022-09-01T00:26:12;63.27;;;19.60;;
495;SDS011;39559;48.630;9.162;2022-09-01T00:28:38;25.20;;;15.95;;
495;SDS011;39559;48.630;9.162;2022-09-01T00:31:05;36.78;;;17.15;;
495;SDS011;39559;48.630;9.162;2022-09-01T00:33:32;24.95;;;16.50;;
495;SDS011;39559;48.630;9.162;2022-09-01T00:35:59;32.35;;;17.17;;
495;SDS011;39559;48.630;9.162;2022-09-01T00:40:21;48.45;;;18.70;;
495;SDS011;39559;48.630;9.162;2022-09-01T00:42:47;39.58;;;18.17;;
495;SDS011;39559;48.630;9.162;2022-09-01T00:45:13;37.88;;;18.08;;
495;SDS011;39559;48.630;9.162;2022-09-01T00:47:39;25.47;;;16.27;;
495;SDS011;39559;48.630;9.162;2022-09-01T00:50:06;24.00;;;15.00;;
495;SDS011;39559;48.630;9.162;2022-09-01T00:52:34;32.05;;;16.98;;
495;SDS011;39559;48.630;9.162;2022-09-01T00:55:06;39.53;;;18.65;;
495;SDS011;39559;48.630;9.162;2022-09-01T00:57:36;35.88;;;18.45;;
495;SDS011;39559;48.630;9.162;2022-09-01T01:00:09;40.70;;;18.73;;
495;SDS011;39559;48.630;9.162;2022-09-01T01:04:18;40.17;;;17.95;;
495;SDS011;39559;48.630;9.162;2022-09-01T01:06:45;35.97;;;18.33;;
495;SDS011;39559;48.630;9.162;2022-09-01T01:09:18;42.97;;;17.65;;
495;SDS011;39559;48.630;9.162;2022-09-01T01:11:46;33.97;;;17.35;;
495;SDS011;39559;48.630;9.162;2022-09-01T01:14:13;31.90;;;16.85;;
495;SDS011;39559;48.630;9.162;2022-09-01T01:16:46;42.65;;;16.13;;
495;SDS011;39559;48.630;9.162;2022-09-01T01:22:09;26.08;;;15.88;;
495;SDS011;39559;48.630;9.162;2022-09-01T01:25:02;53.42;;;18.40;;
495;SDS011;39559;48.630;9.162;2022-09-01T01:28:19;66.38;;;19.10;;
495;SDS011;39559;48.630;9.162;2022-09-01T01:30:55;45.10;;;17.92;;
495;SDS011;39559;48.630;9.162;2022-09-01T01:33:45;48.17;;;17.17;;
495;SDS011;39559;48.630;9.162;2022-09-01T01:38:53;43.13;;;17.75;;
495;SDS011;39559;48.630;9.162;2022-09-01T01:41:19;43.30;;;17.05;;
495;SDS011;39559;48.630;9.162;2022-09-01T01:43:46;66.50;;;18.05;;
495;SDS011;39559;48.630;9.162;2022-09-01T01:46:15;67.68;;;18.50;;
495;SDS011;39559;48.630;9.162;2022-09-01T01:48:43;66.47;;;20.67;;
495;SDS011;39559;48.630;9.162;2022-09-01T01:52:12;57.83;;;16.95;;
495;SDS011;39559;48.630;9.162;2022-09-01T01:54:44;29.67;;;15.88;;
495;SDS011;39559;48.630;9.162;2022-09-01T01:57:10;24.08;;;15.40;;
495;SDS011;39559;48.630;9.162;2022-09-01T01:59:41;40.30;;;18.75;;
495;SDS011;39559;48.630;9.162;2022-09-01T02:02:07;23.50;;;15.57;;
495;SDS011;39559;48.630;9.162;2022-09-01T02:04:34;46.75;;;17.73;;
495;SDS011;39559;48.630;9.162;2022-09-01T02:07:00;41.58;;;17.55;;
495;SDS011;39559;48.630;9.162;2022-09-01T02:09:26;61.93;;;18.53;;
495;SDS011;39559;48.630;9.162;2022-09-01T02:11:51;56.70;;;18.60;;
495;SDS011;39559;48.630;9.162;2022-09-01T02:16:09;56.35;;;16.85;;
495;SDS011;39559;48.630;9.162;2022-09-01T02:18:42;49.35;;;18.30;;
495;SDS011;39559;48.630;9.162;2022-09-01T02:21:12;58.88;;;17.40;;
495;SDS011;39559;48.630;9.162;2022-09-01T02:23:39;70.35;;;18.13;;
495;SDS011;39559;48.630;9.162;2022-09-01T02:26:06;74.57;;;19.40;;
495;SDS011;39559;48.630;9.162;2022-09-01T02:28:36;77.93;;;19.85;;
495;SDS011;39559;48.630;9.162;2022-09-01T02:31:07;72.18;;;18.48;;
495;SDS011;39559;48.630;9.162;2022-09-01T02:33:35;58.88;;;18.80;;
495;SDS011;39559;48.630;9.162;2022-09-01T02:36:07;44.33;;;16.00;;
495;SDS011;39559;48.630;9.162;2022-09-01T02:40:08;72.95;;;19.08;;
495;SDS011;39559;48.630;9.162;2022-09-01T02:42:37;58.60;;;16.95;;
495;SDS011;39559;48.630;9.162;2022-09-01T02:45:07;55.53;;;16.80;;
495;SDS011;39559;48.630;9.162;2022-09-01T02:47:36;52.45;;;16.83;;
495;SDS011;39559;48.630;9.162;2022-09-01T02:50:06;62.35;;;18.20;;
495;SDS011;39559;48.630;9.162;2022-09-01T02:52:38;109.25;;;20.58;;
495;SDS011;39559;48.630;9.162;2022-09-01T02:55:05;99.03;;;18.70;;
495;SDS011;39559;48.630;9.162;2022-09-01T02:57:32;69.63;;;18.13;;
495;SDS011;39559;48.630;9.162;2022-09-01T02:59:59;112.05;;;19.25;;
495;SDS011;39559;48.630;9.162;2022-09-01T03:04:06;87.32;;;17.00;;
495;SDS011;39559;48.630;9.162;2022-09-01T03:06:34;114.28;;;18.23;;
495;SDS011;39559;48.630;9.162;2022-09-01T03:09:02;70.72;;;17.58;;
495;SDS011;39559;48.630;9.162;2022-09-01T03:11:31;100.55;;;19.25;;
495;SDS011;39559;48.630;9.162;2022-09-01T03:13:59;148.23;;;21.48;;
495;SDS011;39559;48.630;9.162;2022-09-01T03:16:25;117.97;;;19.35;;
495;SDS011;39559;48.630;9.162;2022-09-01T03:18:54;214.07;;;22.88;;
495;SDS011;39559;48.630;9.162;2022-09-01T03:21:20;123.40;;;18.80;;
495;SDS011;39559;48.630;9.162;2022-09-01T03:23:47;196.88;;;24.02;;
495;SDS011;39559;48.630;9.162;2022-09-01T03:28:04;145.75;;;21.27;;
495;SDS011;39559;48.630;9.162;2022-09-01T03:30:30;137.35;;;21.25;;
495;SDS011;39559;48.630;9.162;2022-09-01T03:32:58;107.97;;;21.75;;
495;SDS011;39559;48.630;9.162;2022-09-01T03:35:26;40.00;;;18.00;;
495;SDS011;39559;48.630;9.162;2022-09-01T03:37:53;26.27;;;17.83;;
495;SDS011;39559;48.630;9.162;2022-09-01T03:40:24;48.92;;;17.60;;
495;SDS011;39559;48.630;9.162;2022-09-01T03:42:54;62.55;;;19.80;;
495;SDS011;39559;48.630;9.162;2022-09-01T03:45:20;58.60;;;19.60;;
495;SDS011;39559;48.630;9.162;2022-09-01T03:47:46;47.45;;;17.17;;
495;SDS011;39559;48.630;9.162;2022-09-01T03:52:00;38.55;;;15.43;;
495;SDS011;39559;48.630;9.162;2022-09-01T03:54:26;48.67;;;17.10;;
495;SDS011;39559;48.630;9.162;2022-09-01T03:56:54;29.67;;;15.82;;
495;SDS011;39559;48.630;9.162;2022-09-01T03:59:23;35.38;;;17.25;;
495;SDS011;39559;48.630;9.162;2022-09-01T04:01:49;34.88;;;16.60;;
495;SDS011;39559;48.630;9.162;2022-09-01T04:04:15;32.80;;;15.80;;
495;SDS011;39559;48.630;9.162;2022-09-01T04:06:42;62.83;;;18.20;;
495;SDS011;39559;48.630;9.162;2022-09-01T04:09:09;28.52;;;16.00;;
495;SDS011;39559;48.630;9.162;2022-09-01T04:11:36;44.08;;;18.65;;
495;SDS011;39559;48.630;9.162;2022-09-01T04:16:00;42.88;;;18.48;;
495;SDS011;39559;48.630;9.162;2022-09-01T04:18:26;50.80;;;19.52;;
495;SDS011;39559;48.630;9.162;2022-09-01T04:20:56;31.02;;;17.17;;
495;SDS011;39559;48.630;9.162;2022-09-01T04:23:27;38.13;;;17.45;;
495;SDS011;39559;48.630;9.162;2022-09-01T04:25:57;39.15;;;19.67;;
495;SDS011;39559;48.630;9.162;2022-09-01T04:28:40;26.40;;;18.52;;
495;SDS011;39559;48.630;9.162;2022-09-01T04:31:11;19.05;;;16.95;;
495;SDS011;39559;48.630;9.162;2022-09-01T04:33:41;20.85;;;17.73;;
495;SDS011;39559;48.630;9.162;2022-09-01T04:36:19;20.67;;;16.27;;
495;SDS011;39559;48.630;9.162;2022-09-01T04:39:56;31.77;;;17.95;;
495;SDS011;39559;48.630;9.162;2022-09-01T04:42:23;30.33;;;19.17;;
495;SDS011;39559;48.630;9.162;2022-09-01T04:44:51;21.80;;;18.40;;
495;SDS011;39559;48.630;9.162;2022-09-01T04:47:27;26.95;;;18.38;;
495;SDS011;39559;48.630;9.162;2022-09-01T04:49:56;39.88;;;20.10;;
495;SDS011;39559;48.630;9.162;2022-09-01T04:52:27;23.17;;;17.85;;
495;SDS011;39559;48.630;9.162;2022-09-01T04:54:53;25.27;;;19.00;;
495;SDS011;39559;48.630;9.162;2022-09-01T04:57:20;59.13;;;21.77;;
495;SDS011;39559;48.630;9.162;2022-09-01T04:59:46;24.42;;;18.13;;
495;SDS011;39559;48.630;9.162;2022-09-01T05:03:54;21.33;;;17.60;;
495;SDS011;39559;48.630;9.162;2022-09-01T05:09:27;19.25;;;16.73;;
495;SDS011;39559;48.630;9.162;2022-09-01T05:11:56;20.63;;;16.95;;
495;SDS011;39559;48.630;9.162;2022-09-01T05:14:42;19.60;;;17.60;;
495;SDS011;39559;48.630;9.162;2022-09-01T05:17:13;20.75;;;17.90;;
495;SDS011;39559;48.630;9.162;2022-09-01T05:19:39;19.40;;;17.40;;
495;SDS011;39559;48.630;9.162;2022-09-01T05:22:07;21.45;;;17.15;;
495;SDS011;39559;48.630;9.162;2022-09-01T05:24:35;19.35;;;17.33;;
495;SDS011;39559;48.630;9.162;2022-09-01T05:27:51;21.63;;;17.55;;
495;SDS011;39559;48.630;9.162;2022-09-01T05:30:17;21.50;;;19.20;;
495;SDS011;39559;48.630;9.162;2022-09-01T05:32:43;19.40;;;17.30;;
495;SDS011;39559;48.630;9.162;2022-09-01T05:35:11;30.23;;;18.95;;
495;SDS011;39559;48.630;9.162;2022-09-01T05:37:37;22.67;;;17.00;;
495;SDS011;39559;48.630;9.162;2022-09-01T05:40:06;30.42;;;18.90;;
495;SDS011;39559;48.630;9.162;2022-09-01T05:42:33;22.38;;;17.70;;
495;SDS011;39559;48.630;9.162;2022-09-01T05:45:01;20.45;;;17.60;;
495;SDS011;39559;48.630;9.162;2022-09-01T05:47:28;18.75;;;16.80;;
495;SDS011;39559;48.630;9.162;2022-09-01T05:51:49;22.80;;;17.50;;
495;SDS011;39559;48.630;9.162;2022-09-01T05:54:18;17.75;;;15.95;;
495;SDS011;39559;48.630;9.162;2022-09-01T05:56:51;21.38;;;16.80;;
495;SDS011;39559;48.630;9.162;2022-09-01T05:59:18;19.60;;;17.55;;
495;SDS011;39559;48.630;9.162;2022-09-01T06:01:45;18.50;;;16.30;;
495;SDS011;39559;48.630;9.162;2022-09-01T06:04:12;20.88;;;17.98;;
495;SDS011;39559;48.630;9.162;2022-09-01T06:06:40;21.77;;;18.70;;
495;SDS011;39559;48.630;9.162;2022-09-01T06:09:10;25.10;;;19.92;;
495;SDS011;39559;48.630;9.162;2022-09-01T06:11:38;32.30;;;20.05;;
495;SDS011;39559;48.630;9.162;2022-09-01T06:15:48;25.58;;;19.38;;
495;SDS011;39559;48.630;9.162;2022-09-01T06:18:14;25.10;;;21.42;;
495;SDS011;39559;48.630;9.162;2022-09-01T06:20:42;26.98;;;21.00;;
495;SDS011;39559;48.630;9.162;2022-09-01T06:23:11;27.35;;;23.50;;
495;SDS011;39559;48.630;9.162;2022-09-01T06:25:40;30.08;;;23.13;;
495;SDS011;39559;48.630;9.162;2022-09-01T06:28:10;26.40;;;23.58;;
495;SDS011;39559;48.630;9.162;2022-09-01T06:30:40;30.35;;;24.27;;
495;SDS011;39559;48.630;9.162;2022-09-01T06:33:08;28.35;;;22.98;;
495;SDS011;39559;48.630;9.162;2022-09-01T06:35:36;25.65;;;22.95;;
495;SDS011;39559;48.630;9.162;2022-09-01T06:39:45;24.50;;;21.08;;
495;SDS011;39559;48.630;9.162;2022-09-01T06:42:11;26.23;;;22.27;;
495;SDS011;39559;48.630;9.162;2022-09-01T06:44:37;25.85;;;22.27;;
495;SDS011;39559;48.630;9.162;2022-09-01T06:47:03;26.57;;;22.60;;
495;SDS011;39559;48.630;9.162;2022-09-01T06:49:29;25.70;;;22.20;;
495;SDS011;39559;48.630;9.162;2022-09-01T06:51:59;28.38;;;22.92;;
495;SDS011;39559;48.630;9.162;2022-09-01T06:54:27;28.10;;;24.02;;
495;SDS011;39559;48.630;9.162;2022-09-01T06:56:55;30.60;;;27.13;;
495;SDS011;39559;48.630;9.162;2022-09-01T06:59:26;30.38;;;25.23;;
495;SDS011;39559;48.630;9.162;2022-09-01T07:03:43;28.60;;;25.02;;
495;SDS011;39559;48.630;9.162;2022-09-01T07:06:11;29.50;;;24.92;;
495;SDS011;39559;48.630;9.162;2022-09-01T07:08:39;29.13;;;25.00;;
495;SDS011;39559;48.630;9.162;2022-09-01T07:11:06;29.75;;;25.75;;
495;SDS011;39559;48.630;9.162;2022-09-01T07:13:40;30.70;;;24.02;;
495;SDS011;39559;48.630;9.162;2022-09-01T07:16:08;28.30;;;25.17;;
495;SDS011;39559;48.630;9.162;2022-09-01T07:18:45;30.48;;;27.02;;
495;SDS011;39559;48.630;9.162;2022-09-01T07:21:10;37.00;;;28.10;;
495;SDS011;39559;48.630;9.162;2022-09-01T07:23:36;35.80;;;27.63;;
495;SDS011;39559;48.630;9.162;2022-09-01T07:27:41;40.40;;;30.58;;
495;SDS011;39559;48.630;9.162;2022-09-01T07:30:18;38.88;;;31.35;;
495;SDS011;39559;48.630;9.162;2022-09-01T07:32:47;42.78;;;31.48;;
495;SDS011;39559;48.630;9.162;2022-09-01T07:35:16;46.50;;;32.03;;
495;SDS011;39559;48.630;9.162;2022-09-01T07:37:44;38.30;;;30.92;;
495;SDS011;39559;48.630;9.162;2022-09-01T07:40:11;36.17;;;31.48;;
495;SDS011;39559;48.630;9.162;2022-09-01T07:42:46;34.38;;;29.20;;
495;SDS011;39559;48.630;9.162;2022-09-01T07:45:17;38.60;;;30.33;;
495;SDS011;39559;48.630;9.162;2022-09-01T07:47:44;37.72;;;30.38;;
495;SDS011;39559;48.630;9.162;2022-09-01T07:51:39;33.42;;;28.02;;
495;SDS011;39559;48.630;9.162;2022-09-01T07:54:05;32.87;;;25.73;;
495;SDS011;39559;48.630;9.162;2022-09-01T07:56:31;29.88;;;26.65;;
495;SDS011;39559;48.630;9.162;2022-09-01T07:58:56;31.67;;;27.43;;
495;SDS011;39559;48.630;9.162;2022-09-01T08:01:23;29.38;;;24.95;;
495;SDS011;39559;48.630;9.162;2022-09-01T08:03:52;28.52;;;25.20;;
495;SDS011;39559;48.630;9.162;2022-09-01T08:06:21;28.90;;;25.80;;
495;SDS011;39559;48.630;9.162;2022-09-01T08:08:50;26.05;;;23.25;;
495;SDS011;39559;48.630;9.162;2022-09-01T08:11:19;26.02;;;23.30;;
495;SDS011;39559;48.630;9.162;2022-09-01T08:15:37;26.10;;;23.30;;
495;SDS011;39559;48.630;9.162;2022-09-01T08:18:04;26.23;;;23.60;;
495;SDS011;39559;48.630;9.162;2022-09-01T08:20:30;25.38;;;22.70;;
495;SDS011;39559;48.630;9.162;2022-09-01T08:22:59;25.95;;;23.15;;
495;SDS011;39559;48.630;9.162;2022-09-01T08:25:25;24.70;;;22.10;;
495;SDS011;39559;48.630;9.162;2022-09-01T08:27:52;23.70;;;21.20;;
495;SDS011;39559;48.630;9.162;2022-09-01T08:30:17;22.90;;;20.40;;
495;SDS011;39559;48.630;9.162;2022-09-01T08:32:43;22.93;;;20.27;;
495;SDS011;39559;48.630;9.162;2022-09-01T08:35:09;22.53;;;20.33;;
495;SDS011;39559;48.630;9.162;2022-09-01T08:39:34;21.88;;;19.67;;
495;SDS011;39559;48.630;9.162;2022-09-01T08:42:06;26.30;;;22.07;;
495;SDS011;39559;48.630;9.162;2022-09-01T08:47:21;22.77;;;20.38;;
495;SDS011;39559;48.630;9.162;2022-09-01T08:49:47;20.63;;;18.43;;
495;SDS011;39559;48.630;9.162;2022-09-01T08:57:35;19.55;;;17.55;;
495;SDS011;39559;48.630;9.162;2022-09-01T09:00:07;20.17;;;17.50;;
495;SDS011;39559;48.630;9.162;2022-09-01T09:03:36;18.10;;;15.20;;
495;SDS011;39559;48.630;9.162;2022-09-01T09:11:26;14.07;;;12.77;;
495;SDS011;39559;48.630;9.162;2022-09-01T09:17:14;12.80;;;11.70;;
495;SDS011;39559;48.630;9.162;2022-09-01T09:19:44;11.90;;;10.90;;
495;SDS011;39559;48.630;9.162;2022-09-01T09:22:12;12.23;;;11.07;;
495;SDS011;39559;48.630;9.162;2022-09-01T09:30:25;10.70;;;9.80;;
495;SDS011;39559;48.630;9.162;2022-09-01T09:35:33;10.40;;;9.50;;
495;SDS011;39559;48.630;9.162;2022-09-01T09:38:20;11.97;;;10.93;;
495;SDS011;39559;48.630;9.162;2022-09-01T09:43:34;11.53;;;10.53;;
495;SDS011;39559;48.630;9.162;2022-09-01T09:51:26;10.93;;;9.93;;
495;SDS011;39559;48.630;9.162;2022-09-01T09:53:51;10.60;;;9.17;;
495;SDS011;39559;48.630;9.162;2022-09-01T09:56:18;11.60;;;10.40;;
495;SDS011;39559;48.630;9.162;2022-09-01T09:58:48;9.80;;;9.00;;
495;SDS011;39559;48.630;9.162;2022-09-01T10:03:53;10.47;;;9.50;;
495;SDS011;39559;48.630;9.162;2022-09-01T10:06:31;9.90;;;9.00;;
495;SDS011;39559;48.630;9.162;2022-09-01T10:08:59;10.70;;;9.70;;
495;SDS011;39559;48.630;9.162;2022-09-01T10:11:35;9.53;;;8.63;;
495;SDS011;39559;48.630;9.162;2022-09-01T10:15:27;10.20;;;9.30;;
495;SDS011;39559;48.630;9.162;2022-09-01T10:18:01;9.70;;;8.70;;
495;SDS011;39559;48.630;9.162;2022-09-01T10:20:32;9.10;;;8.30;;
495;SDS011;39559;48.630;9.162;2022-09-01T10:23:01;9.40;;;8.50;;
495;SDS011;39559;48.630;9.162;2022-09-01T10:25:28;9.23;;;8.37;;
495;SDS011;39559;48.630;9.162;2022-09-01T10:28:01;9.50;;;8.70;;
495;SDS011;39559;48.630;9.162;2022-09-01T10:30:40;8.90;;;8.20;;
495;SDS011;39559;48.630;9.162;2022-09-01T10:33:08;9.20;;;8.50;;
495;SDS011;39559;48.630;9.162;2022-09-01T10:35:36;8.93;;;8.13;;
495;SDS011;39559;48.630;9.162;2022-09-01T10:39:20;8.80;;;8.10;;
495;SDS011;39559;48.630;9.162;2022-09-01T10:41:50;8.90;;;8.00;;
495;SDS011;39559;48.630;9.162;2022-09-01T10:46:44;8.40;;;7.70;;
495;SDS011;39559;48.630;9.162;2022-09-01T10:51:54;9.07;;;8.27;;
495;SDS011;39559;48.630;9.162;2022-09-01T10:57:04;8.03;;;7.43;;
495;SDS011;39559;48.630;9.162;2022-09-01T10:59:35;9.23;;;7.60;;
495;SDS011;39559;48.630;9.162;2022-09-01T11:11:00;8.53;;;7.73;;
495;SDS011;39559;48.630;9.162;2022-09-01T11:13:42;8.63;;;7.83;;
495;SDS011;39559;48.630;9.162;2022-09-01T11:16:37;9.00;;;8.10;;
495;SDS011;39559;48.630;9.162;2022-09-01T11:22:20;7.90;;;7.20;;
495;SDS011;39559;48.630;9.162;2022-09-01T11:27:56;8.67;;;7.73;;
495;SDS011;39559;48.630;9.162;2022-09-01T11:30:31;8.17;;;7.47;;
495;SDS011;39559;48.630;9.162;2022-09-01T11:35:41;8.00;;;7.30;;
495;SDS011;39559;48.630;9.162;2022-09-01T11:38:09;7.80;;;7.10;;
495;SDS011;39559;48.630;9.162;2022-09-01T11:40:37;7.90;;;7.20;;
495;SDS011;39559;48.630;9.162;2022-09-01T11:43:05;7.23;;;6.63;;
495;SDS011;39559;48.630;9.162;2022-09-01T11:45:37;7.70;;;7.10;;
495;SDS011;39559;48.630;9.162;2022-09-01T11:48:31;7.67;;;6.97;;
495;SDS011;39559;48.630;9.162;2022-09-01T11:51:08;6.90;;;6.40;;
495;SDS011;39559;48.630;9.162;2022-09-01T11:53:34;7.33;;;6.73;;
495;SDS011;39559;48.630;9.162;2022-09-01T11:56:14;7.43;;;6.83;;
495;SDS011;39559;48.630;9.162;2022-09-01T11:58:42;7.80;;;7.20;;
495;SDS011;39559;48.630;9.162;2022-09-01T12:01:15;7.20;;;6.60;;
495;SDS011;39559;48.630;9.162;2022-09-01T12:03:56;6.30;;;5.80;;
495;SDS011;39559;48.630;9.162;2022-09-01T12:06:27;6.50;;;6.00;;
495;SDS011;39559;48.630;9.162;2022-09-01T12:08:57;7.43;;;6.47;;
495;SDS011;39559;48.630;9.162;2022-09-01T12:11:27;7.00;;;6.40;;
495;SDS011;39559;48.630;9.162;2022-09-01T12:15:10;6.97;;;6.37;;
495;SDS011;39559;48.630;9.162;2022-09-01T12:17:49;7.07;;;6.43;;
495;SDS011;39559;48.630;9.162;2022-09-01T12:20:29;7.27;;;6.67;;
495;SDS011;39559;48.630;9.162;2022-09-01T12:22:59;7.30;;;6.70;;
495;SDS011;39559;48.630;9.162;2022-09-01T12:25:27;6.93;;;6.43;;
495;SDS011;39559;48.630;9.162;2022-09-01T12:27:55;7.03;;;6.43;;
495;SDS011;39559;48.630;9.162;2022-09-01T12:30:24;7.03;;;6.53;;
495;SDS011;39559;48.630;9.162;2022-09-01T12:32:51;7.47;;;6.87;;
495;SDS011;39559;48.630;9.162;2022-09-01T12:35:22;7.50;;;6.80;;
495;SDS011;39559;48.630;9.162;2022-09-01T12:41:41;7.60;;;7.00;;
495;SDS011;39559;48.630;9.162;2022-09-01T12:46:56;7.53;;;6.93;;
495;SDS011;39559;48.630;9.162;2022-09-01T12:49:45;7.43;;;6.83;;
495;SDS011;39559;48.630;9.162;2022-09-01T12:57:35;7.47;;;6.87;;
495;SDS011;39559;48.630;9.162;2022-09-01T13:03:12;6.73;;;6.23;;
495;SDS011;39559;48.630;9.162;2022-09-01T13:05:42;6.80;;;6.30;;
495;SDS011;39559;48.630;9.162;2022-09-01T13:10:49;7.23;;;6.63;;
495;SDS011;39559;48.630;9.162;2022-09-01T13:13:20;7.47;;;6.87;;
495;SDS011;39559;48.630;9.162;2022-09-01T13:15:52;6.87;;;6.23;;
495;SDS011;39559;48.630;9.162;2022-09-01T13:18:21;7.53;;;6.93;;
495;SDS011;39559;48.630;9.162;2022-09-01T13:20:48;6.90;;;6.40;;
495;SDS011;39559;48.630;9.162;2022-09-01T13:23:15;7.53;;;6.93;;
495;SDS011;39559;48.630;9.162;2022-09-01T13:26:51;7.67;;;7.07;;
495;SDS011;39559;48.630;9.162;2022-09-01T13:29:18;7.70;;;7.10;;
495;SDS011;39559;48.630;9.162;2022-09-01T13:31:44;7.97;;;7.37;;
495;SDS011;39559;48.630;9.162;2022-09-01T13:34:10;7.70;;;7.07;;
495;SDS011;39559;48.630;9.162;2022-09-01T13:36:36;8.07;;;7.37;;
495;SDS011;39559;48.630;9.162;2022-09-01T13:39:01;7.90;;;7.20;;
495;SDS011;39559;48.630;9.162;2022-09-01T13:41:27;7.87;;;7.27;;
495;SDS011;39559;48.630;9.162;2022-09-01T13:43:53;7.83;;;7.23;;
495;SDS011;39559;48.630;9.162;2022-09-01T13:46:18;8.30;;;7.53;;
495;SDS011;39559;48.630;9.162;2022-09-01T13:50:47;8.57;;;7.87;;
495;SDS011;39559;48.630;9.162;2022-09-01T13:53:15;8.77;;;7.93;;
495;SDS011;39559;48.630;9.162;2022-09-01T13:55:41;8.20;;;7.50;;
495;SDS011;39559;48.630;9.162;2022-09-01T13:58:08;8.13;;;7.43;;
495;SDS011;39559;48.630;9.162;2022-09-01T14:00:35;10.00;;;8.00;;
495;SDS011;39559;48.630;9.162;2022-09-01T14:03:04;7.63;;;7.03;;
495;SDS011;39559;48.630;9.162;2022-09-01T14:05:34;8.07;;;7.37;;
495;SDS011;39559;48.630;9.162;2022-09-01T14:08:03;8.00;;;7.40;;
495;SDS011;39559;48.630;9.162;2022-09-01T14:10:30;8.30;;;7.60;;
495;SDS011;39559;48.630;9.162;2022-09-01T14:14:41;8.23;;;7.53;;
495;SDS011;39559;48.630;9.162;2022-09-01T14:17:07;8.33;;;7.70;;
495;SDS011;39559;48.630;9.162;2022-09-01T14:19:33;7.63;;;7.03;;
495;SDS011;39559;48.630;9.162;2022-09-01T14:22:00;8.97;;;7.87;;
495;SDS011;39559;48.630;9.162;2022-09-01T14:24:32;8.10;;;7.40;;
495;SDS011;39559;48.630;9.162;2022-09-01T14:27:00;8.60;;;7.77;;
495;SDS011;39559;48.630;9.162;2022-09-01T14:29:26;8.70;;;8.00;;
495;SDS011;39559;48.630;9.162;2022-09-01T14:31:52;8.83;;;8.13;;
495;SDS011;39559;48.630;9.162;2022-09-01T14:34:19;8.23;;;7.50;;
495;SDS011;39559;48.630;9.162;2022-09-01T14:38:36;8.13;;;7.47;;
495;SDS011;39559;48.630;9.162;2022-09-01T14:41:02;8.00;;;7.33;;
495;SDS011;39559;48.630;9.162;2022-09-01T14:43:27;8.70;;;8.00;;
495;SDS011;39559;48.630;9.162;2022-09-01T14:46:04;8.30;;;7.57;;
495;SDS011;39559;48.630;9.162;2022-09-01T14:48:33;8.13;;;7.43;;
495;SDS011;39559;48.630;9.162;2022-09-01T14:50:59;8.13;;;7.33;;
495;SDS011;39559;48.630;9.162;2022-09-01T14:53:26;8.07;;;7.37;;
495;SDS011;39559;48.630;9.162;2022-09-01T14:55:54;7.80;;;7.20;;
495;SDS011;39559;48.630;9.162;2022-09-01T14:58:21;7.23;;;6.73;;
495;SDS011;39559;48.630;9.162;2022-09-01T15:02:31;7.53;;;6.93;;
495;SDS011;39559;48.630;9.162;2022-09-01T15:04:57;6.60;;;6.10;;
495;SDS011;39559;48.630;9.162;2022-09-01T15:07:22;7.50;;;6.70;;
495;SDS011;39559;48.630;9.162;2022-09-01T15:09:48;7.00;;;6.40;;
495;SDS011;39559;48.630;9.162;2022-09-01T15:12:14;11.07;;;6.63;;
495;SDS011;39559;48.630;9.162;2022-09-01T15:14:39;8.63;;;7.27;;
495;SDS011;39559;48.630;9.162;2022-09-01T15:17:05;7.40;;;6.80;;
495;SDS011;39559;48.630;9.162;2022-09-01T15:19:31;7.80;;;7.10;;
495;SDS011;39559;48.630;9.162;2022-09-01T15:21:56;7.17;;;6.57;;
495;SDS011;39559;48.630;9.162;2022-09-01T15:26:28;7.33;;;6.73;;
495;SDS011;39559;48.630;9.162;2022-09-01T15:28:54;7.93;;;7.33;;
495;SDS011;39559;48.630;9.162;2022-09-01T15:31:21;7.33;;;6.80;;
495;SDS011;39559;48.630;9.162;2022-09-01T15:33:48;7.80;;;7.20;;
495;SDS011;39559;48.630;9.162;2022-09-01T15:36:18;7.57;;;6.80;;
495;SDS011;39559;48.630;9.162;2022-09-01T15:38:46;8.13;;;7.30;;
495;SDS011;39559;48.630;9.162;2022-09-01T15:41:17;8.50;;;7.70;;
495;SDS011;39559;48.630;9.162;2022-09-01T15:43:43;7.30;;;6.60;;
495;SDS011;39559;48.630;9.162;2022-09-01T15:46:09;9.90;;;6.97;;
495;SDS011;39559;48.630;9.162;2022-09-01T15:50:21;9.60;;;7.40;;
495;SDS011;39559;48.630;9.162;2022-09-01T15:55:20;7.70;;;6.93;;
495;SDS011;39559;48.630;9.162;2022-09-01T15:58:01;8.60;;;7.90;;
495;SDS011;39559;48.630;9.162;2022-09-01T16:00:27;7.80;;;7.10;;
495;SDS011;39559;48.630;9.162;2022-09-01T16:02:53;7.77;;;7.00;;
495;SDS011;39559;48.630;9.162;2022-09-01T16:05:22;8.33;;;7.37;;
495;SDS011;39559;48.630;9.162;2022-09-01T16:07:49;8.37;;;6.77;;
495;SDS011;39559;48.630;9.162;2022-09-01T16:10:16;7.60;;;7.10;;
495;SDS011;39559;48.630;9.162;2022-09-01T16:14:15;8.40;;;7.40;;
495;SDS011;39559;48.630;9.162;2022-09-01T16:24:50;8.13;;;7.47;;
495;SDS011;39559;48.630;9.162;2022-09-01T16:27:19;7.73;;;7.03;;
495;SDS011;39559;48.630;9.162;2022-09-01T16:29:55;14.30;;;8.20;;
495;SDS011;39559;48.630;9.162;2022-09-01T16:32:26;8.10;;;7.50;;
495;SDS011;39559;48.630;9.162;2022-09-01T16:34:52;8.10;;;7.47;;
495;SDS011;39559;48.630;9.162;2022-09-01T16:44:20;8.40;;;7.70;;
495;SDS011;39559;48.630;9.162;2022-09-01T16:52:59;7.73;;;7.13;;
495;SDS011;39559;48.630;9.162;2022-09-01T16:55:50;8.10;;;7.47;;
495;SDS011;39559;48.630;9.162;2022-09-01T16:58:24;7.50;;;6.90;;
495;SDS011;39559;48.630;9.162;2022-09-01T17:02:13;8.03;;;7.43;;
495;SDS011;39559;48.630;9.162;2022-09-01T17:04:46;8.03;;;7.43;;
495;SDS011;39559;48.630;9.162;2022-09-01T17:14:53;8.50;;;7.87;;
495;SDS011;39559;48.630;9.162;2022-09-01T17:17:32;8.33;;;7.50;;
495;SDS011;39559;48.630;9.162;2022-09-01T17:20:15;8.17;;;7.57;;
495;SDS011;39559;48.630;9.162;2022-09-01T17:22:45;7.90;;;7.30;;
495;SDS011;39559;48.630;9.162;2022-09-01T17:26:11;8.47;;;7.70;;
495;SDS011;39559;48.630;9.162;2022-09-01T17:28:50;9.03;;;8.33;;
495;SDS011;39559;48.630;9.162;2022-09-01T17:42:04;10.57;;;9.70;;
495;SDS011;39559;48.630;9.162;2022-09-01T17:44:50;9.57;;;8.80;;
495;SDS011;39559;48.630;9.162;2022-09-01T17:53:15;9.50;;;8.73;;
495;SDS011;39559;48.630;9.162;2022-09-01T18:04:38;9.40;;;8.60;;
495;SDS011;39559;48.630;9.162;2022-09-01T18:09:33;9.43;;;8.60;;
495;SDS011;39559;48.630;9.162;2022-09-01T18:13:54;10.00;;;9.10;;
495;SDS011;39559;48.630;9.162;2022-09-01T18:16:31;9.97;;;9.07;;
495;SDS011;39559;48.630;9.162;2022-09-01T18:19:38;9.93;;;9.03;;
495;SDS011;39559;48.630;9.162;2022-09-01T18:22:04;9.90;;;9.10;;
495;SDS011;39559;48.630;9.162;2022-09-01T18:27:05;10.50;;;9.60;;
495;SDS011;39559;48.630;9.162;2022-09-01T18:29:33;10.03;;;9.10;;
495;SDS011;39559;48.630;9.162;2022-09-01T18:51:42;10.05;;;8.75;;
495;SDS011;39559;48.630;9.162;2022-09-01T18:57:19;10.30;;;9.40;;
495;SDS011;39559;48.630;9.162;2022-09-01T19:01:42;10.63;;;9.73;;
495;SDS011;39559;48.630;9.162;2022-09-01T19:04:22;10.25;;;9.30;;